Time;durP1;ratioP1;P1;durP2;ratioP2;P2;SDS_P1;SDS_P2;PMS_P1;PMS_P2;Temp;Humidity;BMP_temperature;BMP_pressure;BME280_temperature;BME280_humidity;BME280_pressure;Samples;Min_cycle;Max_cycle;Signal;HPM_P1;HPM_P2
2023/07/25 00:01:39;;;;;;;10.70;2.30;;;14.80;99.90;;;;;;5010619;28;20442;-85
2023/07/25 00:04:05;;;;;;;11.38;2.85;;;14.70;99.90;;;;;;5026987;28;20044;-86
2023/07/25 00:06:31;;;;;;;6.85;2.60;;;14.80;99.90;;;;;;5029849;28;20089;-85
2023/07/25 00:08:58;;;;;;;12.98;2.50;;;14.80;99.90;;;;;;5054793;28;20119;-85
2023/07/25 00:11:24;;;;;;;10.63;2.13;;;14.80;99.90;;;;;;5043058;28;20123;-85
2023/07/25 00:13:50;;;;;;;12.38;2.80;;;14.80;99.90;;;;;;5007944;28;20056;-85
2023/07/25 00:16:16;;;;;;;9.15;2.10;;;14.80;99.90;;;;;;5015956;28;20039;-85
2023/07/25 00:18:42;;;;;;;10.05;2.35;;;14.80;99.90;;;;;;5027655;28;20036;-85
2023/07/25 00:21:08;;;;;;;11.70;2.60;;;14.80;99.90;;;;;;5042739;28;20132;-86
2023/07/25 00:23:34;;;;;;;12.80;2.65;;;14.80;99.90;;;;;;5011540;28;20058;-85
2023/07/25 00:26:00;;;;;;;12.82;2.80;;;14.80;99.90;;;;;;5027407;28;20046;-85
2023/07/25 00:28:26;;;;;;;13.52;2.22;;;14.80;99.90;;;;;;5018106;28;20035;-85
2023/07/25 00:30:52;;;;;;;8.93;2.50;;;14.90;99.90;;;;;;5033308;28;20331;-85
2023/07/25 00:33:18;;;;;;;10.40;2.50;;;14.80;99.90;;;;;;5037128;28;20373;-85
2023/07/25 00:35:52;;;;;;;8.68;2.35;;;14.80;99.90;;;;;;5028606;28;20040;-85
2023/07/25 00:38:18;;;;;;;12.13;2.42;;;14.80;99.90;;;;;;5031094;28;20086;-85
2023/07/25 00:40:44;;;;;;;10.10;2.28;;;14.70;99.90;;;;;;5046795;28;20388;-85
2023/07/25 00:43:10;;;;;;;10.43;2.40;;;14.70;99.90;;;;;;5046904;28;20120;-86
2023/07/25 00:45:36;;;;;;;5.78;1.80;;;14.70;99.90;;;;;;5045165;28;20032;-85
2023/07/25 00:48:03;;;;;;;11.32;2.33;;;14.70;99.90;;;;;;5057866;28;20020;-85
2023/07/25 00:50:31;;;;;;;8.98;2.38;;;14.60;99.90;;;;;;5031120;28;20061;-85
2023/07/25 00:52:59;;;;;;;8.88;2.13;;;14.60;99.90;;;;;;5056539;28;20029;-85
2023/07/25 00:55:27;;;;;;;10.90;2.60;;;14.60;99.90;;;;;;5023480;28;20044;-85
2023/07/25 00:57:54;;;;;;;12.25;2.42;;;14.70;99.90;;;;;;5052281;28;20036;-85
2023/07/25 01:00:20;;;;;;;8.88;2.30;;;14.60;99.90;;;;;;5025503;28;20029;-85
2023/07/25 01:02:46;;;;;;;12.15;2.55;;;14.70;99.90;;;;;;5023629;28;20064;-85
2023/07/25 01:05:12;;;;;;;13.45;2.33;;;14.70;99.90;;;;;;5006876;28;20033;-85
2023/07/25 01:07:40;;;;;;;13.38;2.33;;;14.70;99.90;;;;;;5022865;28;20033;-86
2023/07/25 01:10:08;;;;;;;10.00;2.30;;;14.70;99.90;;;;;;5030539;28;20091;-86
2023/07/25 01:12:35;;;;;;;13.70;3.42;;;14.70;99.90;;;;;;5037288;28;20044;-85
2023/07/25 01:15:02;;;;;;;15.60;2.90;;;14.70;99.90;;;;;;5009005;28;20511;-85
2023/07/25 01:17:28;;;;;;;10.00;2.40;;;14.70;99.90;;;;;;5004782;28;20089;-85
2023/07/25 01:19:54;;;;;;;6.45;2.03;;;14.70;99.90;;;;;;5009110;28;20664;-85
2023/07/25 01:22:24;;;;;;;14.57;2.85;;;14.70;99.90;;;;;;5020482;28;20450;-85
2023/07/25 01:24:54;;;;;;;17.48;2.85;;;14.70;99.90;;;;;;5026781;28;20032;-85
2023/07/25 01:27:20;;;;;;;11.07;2.67;;;14.70;99.90;;;;;;5033282;28;20028;-85
2023/07/25 01:29:46;;;;;;;13.15;2.40;;;14.80;99.90;;;;;;5013763;28;20091;-85
2023/07/25 01:32:14;;;;;;;10.75;2.35;;;14.80;99.90;;;;;;5000745;28;20090;-85
2023/07/25 01:34:40;;;;;;;13.27;2.58;;;14.80;99.90;;;;;;4993245;28;20053;-85
2023/07/25 01:37:06;;;;;;;12.27;2.55;;;14.80;99.90;;;;;;5009810;28;20040;-85
2023/07/25 01:39:33;;;;;;;10.80;2.72;;;14.80;99.90;;;;;;5025738;28;20032;-85
2023/07/25 01:42:01;;;;;;;14.52;2.83;;;14.80;99.90;;;;;;5026244;28;20028;-85
2023/07/25 01:44:27;;;;;;;7.97;2.30;;;14.80;99.90;;;;;;5028810;28;20043;-86
2023/07/25 01:46:56;;;;;;;10.73;2.67;;;14.80;99.90;;;;;;4997177;28;20035;-85
2023/07/25 01:49:22;;;;;;;10.27;2.60;;;14.70;99.90;;;;;;5025609;28;20052;-85
2023/07/25 01:51:48;;;;;;;8.40;2.10;;;14.70;99.90;;;;;;5022485;28;20083;-85
2023/07/25 01:54:16;;;;;;;10.60;2.55;;;14.70;99.90;;;;;;4989850;28;20025;-86
2023/07/25 01:56:43;;;;;;;13.25;2.45;;;14.70;99.90;;;;;;5006792;28;20029;-85
2023/07/25 01:59:08;;;;;;;10.15;2.22;;;14.60;99.90;;;;;;4989677;28;20040;-85
2023/07/25 02:01:34;;;;;;;10.02;2.22;;;14.60;99.90;;;;;;5005247;28;20037;-85
2023/07/25 02:04:00;;;;;;;11.15;2.35;;;14.60;99.90;;;;;;5005849;28;20033;-86
2023/07/25 02:06:29;;;;;;;10.88;2.40;;;14.60;99.90;;;;;;4989843;28;20033;-85
2023/07/25 02:08:57;;;;;;;12.23;2.40;;;14.50;99.90;;;;;;5028220;28;20392;-85
2023/07/25 02:11:25;;;;;;;10.02;2.13;;;14.50;99.90;;;;;;5041179;28;20048;-85
2023/07/25 02:13:51;;;;;;;20.38;3.10;;;14.50;99.90;;;;;;5030012;28;20128;-85
2023/07/25 02:16:20;;;;;;;14.75;2.40;;;14.50;99.90;;;;;;5034921;28;20446;-86
2023/07/25 02:18:46;;;;;;;11.43;2.03;;;14.50;99.90;;;;;;5013812;28;20343;-85
2023/07/25 02:21:12;;;;;;;10.18;1.92;;;14.40;99.90;;;;;;5007607;28;20080;-86
2023/07/25 02:23:38;;;;;;;8.50;2.38;;;14.40;99.90;;;;;;5005777;28;20033;-85
2023/07/25 02:26:05;;;;;;;8.27;2.08;;;14.40;99.90;;;;;;5022227;28;20628;-86
2023/07/25 02:28:33;;;;;;;9.88;2.42;;;14.30;99.90;;;;;;5025453;28;20034;-85
2023/07/25 02:30:59;;;;;;;11.05;2.03;;;14.30;99.90;;;;;;5040609;28;20067;-85
2023/07/25 02:33:25;;;;;;;10.65;2.72;;;14.30;99.90;;;;;;5024829;28;20051;-85
2023/07/25 02:35:51;;;;;;;9.98;2.05;;;14.30;99.90;;;;;;5005141;28;20060;-85
2023/07/25 02:38:21;;;;;;;8.88;2.22;;;14.30;99.90;;;;;;5005473;28;20088;-86
2023/07/25 02:40:49;;;;;;;10.93;2.47;;;14.20;99.90;;;;;;5010384;28;20028;-85
2023/07/25 02:43:17;;;;;;;7.63;1.90;;;14.20;99.90;;;;;;5040707;28;20036;-86
2023/07/25 02:45:43;;;;;;;10.18;2.20;;;14.20;99.90;;;;;;5002899;28;20029;-85
2023/07/25 02:48:09;;;;;;;7.50;1.90;;;14.20;99.90;;;;;;5005283;28;20447;-86
2023/07/25 02:50:38;;;;;;;8.90;2.10;;;14.10;99.90;;;;;;5007030;28;20162;-85
2023/07/25 02:53:04;;;;;;;8.57;1.90;;;14.10;99.90;;;;;;5039237;28;20039;-85
2023/07/25 02:55:30;;;;;;;12.65;2.28;;;14.10;99.90;;;;;;5040737;28;20086;-85
2023/07/25 02:57:56;;;;;;;8.43;2.05;;;14.10;99.90;;;;;;5021098;28;20048;-85
2023/07/25 03:00:24;;;;;;;9.68;2.30;;;14.10;99.90;;;;;;5007902;28;20032;-86
2023/07/25 03:02:51;;;;;;;8.40;2.03;;;14.10;99.90;;;;;;5023595;28;20098;-85
2023/07/25 03:05:18;;;;;;;8.07;2.25;;;14.00;99.90;;;;;;5023083;28;20435;-86
2023/07/25 03:07:47;;;;;;;11.60;2.08;;;14.00;99.90;;;;;;5041123;28;20024;-86
2023/07/25 03:10:14;;;;;;;8.50;2.10;;;13.90;99.90;;;;;;5038877;28;20395;-85
2023/07/25 03:12:40;;;;;;;9.23;2.40;;;13.90;99.90;;;;;;5007536;28;20064;-87
2023/07/25 03:15:06;;;;;;;7.07;1.88;;;13.90;99.90;;;;;;5053485;28;20477;-85
2023/07/25 03:17:33;;;;;;;10.18;2.08;;;14.00;99.90;;;;;;5014834;28;20040;-85
2023/07/25 03:19:59;;;;;;;11.15;2.67;;;14.00;99.90;;;;;;5016685;28;20171;-85
2023/07/25 03:22:27;;;;;;;6.25;1.85;;;13.90;99.90;;;;;;5040351;28;20028;-85
2023/07/25 03:24:55;;;;;;;7.30;1.88;;;13.90;99.90;;;;;;5000228;28;20367;-85
2023/07/25 03:27:22;;;;;;;8.73;2.40;;;13.90;99.90;;;;;;5023795;28;20056;-85
2023/07/25 03:29:48;;;;;;;13.32;2.63;;;13.90;99.90;;;;;;5023142;28;20364;-85
2023/07/25 03:32:14;;;;;;;9.25;2.58;;;13.90;99.90;;;;;;5007421;28;20047;-85
2023/07/25 03:34:40;;;;;;;12.25;2.75;;;13.80;99.90;;;;;;5006537;28;20051;-85
2023/07/25 03:37:09;;;;;;;12.25;2.13;;;13.80;99.90;;;;;;4979626;28;20398;-85
2023/07/25 03:39:42;;;;;;;9.23;2.15;;;13.80;99.90;;;;;;5020333;28;20031;-85
2023/07/25 03:42:08;;;;;;;10.43;2.20;;;13.80;99.90;;;;;;5008506;28;20052;-85
2023/07/25 03:44:34;;;;;;;10.45;2.38;;;13.80;99.90;;;;;;5004119;28;20045;-86
2023/07/25 03:47:00;;;;;;;15.13;2.25;;;13.80;99.90;;;;;;4991740;28;20066;-87
2023/07/25 03:49:29;;;;;;;12.60;2.65;;;13.80;99.90;;;;;;5015487;28;20104;-86
2023/07/25 03:51:55;;;;;;;10.07;2.97;;;13.70;99.90;;;;;;5024131;28;20056;-85
2023/07/25 03:54:23;;;;;;;12.35;2.08;;;13.70;99.90;;;;;;5043439;28;20028;-87
2023/07/25 03:56:52;;;;;;;6.95;2.38;;;13.70;99.90;;;;;;5025388;28;20028;-85
2023/07/25 03:59:19;;;;;;;11.38;1.88;;;13.70;99.90;;;;;;5011335;28;20029;-85
2023/07/25 04:01:45;;;;;;;11.60;2.33;;;13.70;99.90;;;;;;5052735;28;20028;-85
2023/07/25 04:04:12;;;;;;;11.82;1.92;;;13.70;99.90;;;;;;5030663;28;20036;-85
2023/07/25 04:06:39;;;;;;;8.20;1.90;;;13.70;99.90;;;;;;5013236;28;20041;-85
2023/07/25 04:09:08;;;;;;;13.05;2.30;;;13.60;99.90;;;;;;5016937;28;20024;-85
2023/07/25 04:11:35;;;;;;;12.88;2.17;;;13.60;99.90;;;;;;5044363;28;20036;-85
2023/07/25 04:14:06;;;;;;;11.95;2.00;;;13.70;99.90;;;;;;5028386;28;20067;-85
2023/07/25 04:16:34;;;;;;;9.63;1.90;;;13.60;99.90;;;;;;5044063;28;20282;-85
2023/07/25 04:19:03;;;;;;;7.78;2.30;;;13.60;99.90;;;;;;5025940;28;20044;-85
2023/07/25 04:21:30;;;;;;;5.60;1.70;;;13.60;99.90;;;;;;5016660;28;20095;-85
2023/07/25 04:23:57;;;;;;;12.98;1.95;;;13.60;99.90;;;;;;5036838;28;20328;-86
2023/07/25 04:26:23;;;;;;;13.07;2.10;;;13.60;99.90;;;;;;5017448;28;20032;-85
2023/07/25 04:28:49;;;;;;;7.25;1.65;;;13.70;99.90;;;;;;5026975;28;20041;-85
2023/07/25 04:31:21;;;;;;;13.25;2.80;;;13.60;99.90;;;;;;4983077;28;20099;-85
2023/07/25 04:33:47;;;;;;;10.68;1.92;;;13.60;99.90;;;;;;5010688;28;20048;-85
2023/07/25 04:36:13;;;;;;;7.88;1.52;;;13.60;99.90;;;;;;4994554;28;20090;-85
2023/07/25 04:38:40;;;;;;;11.00;1.70;;;13.60;99.90;;;;;;5020211;28;20196;-85
2023/07/25 04:41:06;;;;;;;10.10;1.80;;;13.60;99.90;;;;;;5018780;28;20040;-85
2023/07/25 04:43:32;;;;;;;11.07;1.70;;;13.60;99.90;;;;;;5027095;28;20028;-85
2023/07/25 04:45:58;;;;;;;7.75;1.92;;;13.60;99.90;;;;;;5026784;28;20112;-85
2023/07/25 04:48:24;;;;;;;8.02;1.73;;;13.60;99.90;;;;;;5020047;28;20031;-85
2023/07/25 04:50:53;;;;;;;8.32;1.98;;;13.60;99.90;;;;;;5026926;28;20155;-85
2023/07/25 04:53:21;;;;;;;9.45;2.00;;;13.60;99.90;;;;;;5027588;28;20119;-85
2023/07/25 04:55:50;;;;;;;12.82;2.10;;;13.60;99.90;;;;;;5040237;28;20028;-85
2023/07/25 04:58:20;;;;;;;10.30;1.88;;;13.60;99.90;;;;;;5030803;28;20475;-85
2023/07/25 05:00:47;;;;;;;7.47;1.50;;;13.60;99.90;;;;;;5046162;28;20119;-85
2023/07/25 05:03:13;;;;;;;8.23;1.77;;;13.70;99.90;;;;;;5046092;28;20055;-85
2023/07/25 05:05:39;;;;;;;8.57;1.83;;;13.60;99.90;;;;;;5062140;28;20035;-85
2023/07/25 05:08:05;;;;;;;8.25;1.75;;;13.70;99.90;;;;;;4999587;28;20033;-85
2023/07/25 05:10:35;;;;;;;9.80;2.03;;;13.70;99.90;;;;;;5009971;28;20032;-85
2023/07/25 05:13:06;;;;;;;6.10;1.40;;;13.70;99.90;;;;;;5026771;28;20028;-85
2023/07/25 05:15:32;;;;;;;8.88;1.60;;;13.70;99.90;;;;;;5013248;28;20079;-85
2023/07/25 05:17:58;;;;;;;10.02;1.48;;;13.70;99.90;;;;;;5021960;28;20033;-85
2023/07/25 05:20:26;;;;;;;4.70;1.40;;;13.70;99.90;;;;;;5008231;28;20109;-84
2023/07/25 05:22:52;;;;;;;6.07;1.30;;;13.80;99.90;;;;;;5012582;28;20048;-85
2023/07/25 05:25:21;;;;;;;7.70;1.67;;;13.70;99.90;;;;;;5026413;28;20029;-85
2023/07/25 05:27:47;;;;;;;7.07;1.40;;;13.70;99.90;;;;;;5025912;28;20228;-85
2023/07/25 05:30:14;;;;;;;8.98;1.60;;;13.80;99.90;;;;;;5025320;28;20128;-85
2023/07/25 05:32:40;;;;;;;6.32;1.30;;;13.80;99.90;;;;;;5028608;28;20048;-85
2023/07/25 05:35:15;;;;;;;6.63;1.25;;;13.80;99.90;;;;;;5033833;28;20044;-85
2023/07/25 05:37:41;;;;;;;6.72;1.23;;;13.80;99.90;;;;;;5024563;28;20043;-85
2023/07/25 05:40:08;;;;;;;7.03;1.52;;;13.80;99.90;;;;;;5025187;28;20044;-85
2023/07/25 05:42:34;;;;;;;8.60;1.23;;;13.90;99.90;;;;;;5027419;28;20029;-85
2023/07/25 05:45:00;;;;;;;5.60;1.27;;;13.90;99.90;;;;;;5042441;28;20039;-85
2023/07/25 05:47:28;;;;;;;5.70;1.20;;;13.90;99.90;;;;;;5059251;28;20297;-84
2023/07/25 05:49:57;;;;;;;8.30;1.20;;;14.00;99.90;;;;;;5025283;28;20179;-85
2023/07/25 05:52:23;;;;;;;6.00;1.75;;;14.00;99.90;;;;;;5042260;28;20060;-86
2023/07/25 05:54:49;;;;;;;6.55;1.25;;;14.10;99.90;;;;;;5025724;28;20335;-86
2023/07/25 05:57:15;;;;;;;8.65;1.40;;;14.10;99.90;;;;;;5026097;28;20074;-86
2023/07/25 05:59:43;;;;;;;7.47;1.30;;;14.10;99.90;;;;;;5025627;28;20052;-86
2023/07/25 06:02:12;;;;;;;5.03;1.23;;;14.20;99.90;;;;;;5025575;28;20024;-85
2023/07/25 06:04:42;;;;;;;6.82;1.20;;;14.30;99.90;;;;;;5031207;28;20487;-85
2023/07/25 06:07:08;;;;;;;5.85;1.25;;;14.30;99.90;;;;;;5009781;28;20050;-84
2023/07/25 06:09:34;;;;;;;5.82;1.33;;;14.40;99.90;;;;;;5057701;28;20024;-85
2023/07/25 06:12:01;;;;;;;3.03;0.90;;;14.50;99.90;;;;;;5020447;28;20423;-85
2023/07/25 06:14:27;;;;;;;5.70;1.15;;;14.50;99.90;;;;;;5023063;28;20047;-84
2023/07/25 06:16:53;;;;;;;6.90;1.17;;;14.60;99.90;;;;;;5023128;28;20427;-84
2023/07/25 06:19:19;;;;;;;6.25;1.10;;;14.60;99.90;;;;;;5025156;28;20033;-83
2023/07/25 06:21:45;;;;;;;5.75;1.08;;;14.70;99.90;;;;;;5041465;28;20041;-84
2023/07/25 06:24:13;;;;;;;5.65;1.23;;;14.80;99.90;;;;;;5025604;28;20104;-84
2023/07/25 06:26:39;;;;;;;8.40;1.35;;;14.80;99.90;;;;;;5024574;28;20119;-84
2023/07/25 06:29:05;;;;;;;6.60;1.30;;;14.90;99.90;;;;;;5008828;28;20120;-85
2023/07/25 06:31:31;;;;;;;6.18;1.17;;;14.90;99.90;;;;;;5004498;28;20063;-84
2023/07/25 06:33:58;;;;;;;6.65;1.45;;;14.90;99.90;;;;;;5024679;28;20060;-85
2023/07/25 06:36:24;;;;;;;4.35;1.00;;;14.90;99.90;;;;;;5041678;28;20047;-85
2023/07/25 06:38:50;;;;;;;5.38;1.23;;;14.90;99.90;;;;;;5008787;28;20040;-84
2023/07/25 06:41:16;;;;;;;4.90;1.10;;;14.90;99.90;;;;;;5025032;28;20385;-85
2023/07/25 06:43:42;;;;;;;5.75;1.10;;;14.90;99.90;;;;;;5054480;28;20174;-85
2023/07/25 06:46:08;;;;;;;6.93;1.35;;;15.00;99.90;;;;;;5020505;28;20078;-84
2023/07/25 06:48:34;;;;;;;8.68;1.30;;;15.00;99.90;;;;;;5037768;28;20116;-84
2023/07/25 06:51:00;;;;;;;4.57;1.27;;;15.10;99.90;;;;;;5020897;28;20096;-84
2023/07/25 06:53:26;;;;;;;7.57;1.25;;;15.00;99.90;;;;;;5005498;28;20446;-84
2023/07/25 06:55:52;;;;;;;4.60;1.10;;;15.10;99.90;;;;;;4988679;28;20091;-84
2023/07/25 06:58:18;;;;;;;6.32;1.23;;;15.20;99.90;;;;;;5005409;28;20041;-85
2023/07/25 07:00:45;;;;;;;5.45;1.50;;;15.20;99.90;;;;;;4988573;28;20340;-85
2023/07/25 07:03:15;;;;;;;5.03;1.20;;;15.30;99.90;;;;;;5010677;28;20036;-85
2023/07/25 07:05:40;;;;;;;4.38;1.42;;;15.30;99.90;;;;;;5008883;28;20047;-85
2023/07/25 07:08:06;;;;;;;7.15;1.33;;;15.30;99.90;;;;;;5022602;28;20108;-84
2023/07/25 07:10:35;;;;;;;8.38;1.17;;;15.40;99.90;;;;;;5012890;28;20118;-85
2023/07/25 07:13:04;;;;;;;7.97;1.50;;;15.50;99.90;;;;;;5055617;28;20028;-84
2023/07/25 07:15:30;;;;;;;8.65;1.42;;;15.50;99.90;;;;;;5042271;28;20048;-85
2023/07/25 07:17:56;;;;;;;7.38;1.55;;;15.60;99.90;;;;;;5044284;28;20093;-85
2023/07/25 07:20:22;;;;;;;5.88;1.30;;;15.60;99.90;;;;;;5027760;28;20042;-85
2023/07/25 07:22:48;;;;;;;8.13;1.10;;;15.70;99.90;;;;;;5060618;28;20063;-85
2023/07/25 07:25:14;;;;;;;6.70;1.42;;;15.70;99.90;;;;;;5039731;28;20032;-84
2023/07/25 07:27:40;;;;;;;6.88;1.50;;;15.70;99.90;;;;;;5045354;28;20037;-84
2023/07/25 07:30:07;;;;;;;5.90;1.23;;;15.80;99.90;;;;;;5044715;28;20378;-85
2023/07/25 07:32:32;;;;;;;5.85;1.30;;;15.90;99.90;;;;;;5039087;28;20036;-85
2023/07/25 07:34:58;;;;;;;5.55;1.42;;;16.00;99.90;;;;;;5047775;28;20028;-84
2023/07/25 07:37:25;;;;;;;5.50;1.25;;;16.00;99.90;;;;;;5047201;28;20104;-85
2023/07/25 07:39:51;;;;;;;7.70;1.75;;;16.00;99.90;;;;;;5037704;28;20119;-85
2023/07/25 07:42:17;;;;;;;7.32;1.40;;;16.00;99.90;;;;;;5072888;28;20128;-84
2023/07/25 07:44:43;;;;;;;7.38;1.35;;;16.10;99.90;;;;;;5046993;28;20044;-86
2023/07/25 07:47:09;;;;;;;5.22;1.50;;;16.10;99.90;;;;;;5055136;28;20039;-85
2023/07/25 07:49:35;;;;;;;5.50;1.30;;;16.10;99.90;;;;;;5059042;28;20045;-85
2023/07/25 07:52:01;;;;;;;8.85;1.40;;;16.20;99.90;;;;;;5028236;28;20029;-85
2023/07/25 07:54:29;;;;;;;4.85;0.93;;;16.30;99.90;;;;;;5059549;28;20031;-87
2023/07/25 07:56:58;;;;;;;7.20;1.20;;;16.50;99.90;;;;;;5043706;28;20032;-85
2023/07/25 07:59:27;;;;;;;5.60;1.05;;;16.50;99.90;;;;;;5050666;28;20032;-84
2023/07/25 08:01:55;;;;;;;4.30;1.13;;;16.60;99.90;;;;;;5026005;28;20117;-84
2023/07/25 08:04:21;;;;;;;4.97;1.08;;;16.70;99.90;;;;;;5073574;28;20016;-83
2023/07/25 08:06:47;;;;;;;7.05;1.40;;;16.80;99.90;;;;;;5041840;28;20037;-84
2023/07/25 08:09:13;;;;;;;5.72;1.15;;;16.90;99.90;;;;;;5071126;28;20039;-85
2023/07/25 08:11:40;;;;;;;9.52;1.70;;;17.00;99.90;;;;;;5020812;28;20037;-85
2023/07/25 08:14:09;;;;;;;6.05;1.13;;;17.10;99.90;;;;;;5046941;28;20032;-84
2023/07/25 08:16:38;;;;;;;6.30;1.33;;;17.00;99.90;;;;;;5064019;28;20042;-84
2023/07/25 08:19:04;;;;;;;6.03;1.40;;;16.90;99.90;;;;;;5047214;28;20032;-85
2023/07/25 08:21:30;;;;;;;6.28;1.17;;;16.80;99.90;;;;;;5030732;28;20080;-84
2023/07/25 08:23:56;;;;;;;7.03;1.45;;;16.80;99.90;;;;;;5047536;28;20438;-85
2023/07/25 08:26:21;;;;;;;5.75;1.38;;;16.80;99.90;;;;;;5029685;28;20033;-85
2023/07/25 08:28:47;;;;;;;8.75;1.73;;;16.80;99.90;;;;;;5043874;28;20055;-86
2023/07/25 08:31:13;;;;;;;5.80;1.30;;;16.90;99.90;;;;;;5027372;28;20040;-84
2023/07/25 08:33:42;;;;;;;6.32;1.25;;;17.00;99.90;;;;;;5027615;28;20443;-84
2023/07/25 08:36:09;;;;;;;7.22;1.40;;;17.10;99.90;;;;;;5028037;28;20033;-85
2023/07/25 08:38:36;;;;;;;6.70;1.30;;;17.20;99.90;;;;;;5026445;28;20032;-84
2023/07/25 08:41:05;;;;;;;5.78;1.08;;;17.30;99.90;;;;;;5027022;28;20482;-85
2023/07/25 08:43:36;;;;;;;6.10;1.02;;;17.40;99.90;;;;;;5060473;28;20113;-85
2023/07/25 08:46:17;;;;;;;3.92;1.20;;;17.50;99.90;;;;;;5043350;28;20032;-85
2023/07/25 08:48:43;;;;;;;4.32;1.20;;;17.70;99.90;;;;;;5043810;28;20107;-84
2023/07/25 08:51:19;;;;;;;4.60;1.30;;;17.70;99.90;;;;;;5043103;28;20056;-84
2023/07/25 08:53:56;;;;;;;5.18;1.30;;;17.80;99.90;;;;;;5060606;28;20101;-84
2023/07/25 08:56:23;;;;;;;6.80;1.40;;;18.00;99.90;;;;;;5060503;28;20063;-85
2023/07/25 08:58:54;;;;;;;3.90;1.13;;;18.00;99.90;;;;;;5027641;28;20446;-85
2023/07/25 09:01:22;;;;;;;4.75;1.30;;;18.10;99.90;;;;;;5043505;28;20044;-85
2023/07/25 09:03:49;;;;;;;3.17;0.85;;;18.10;99.90;;;;;;5043827;28;20041;-85
2023/07/25 09:06:15;;;;;;;6.68;0.98;;;18.10;99.90;;;;;;5056260;28;20146;-85
2023/07/25 09:08:41;;;;;;;6.25;1.30;;;18.30;99.90;;;;;;5046814;28;20078;-85
2023/07/25 09:11:13;;;;;;;5.40;1.27;;;18.40;99.90;;;;;;5063104;28;20024;-85
2023/07/25 09:13:39;;;;;;;5.93;1.20;;;18.50;99.90;;;;;;5063457;28;20367;-85
2023/07/25 09:16:05;;;;;;;4.47;1.25;;;18.60;99.90;;;;;;5043089;28;20036;-85
2023/07/25 09:18:34;;;;;;;4.28;1.00;;;18.60;99.90;;;;;;5027175;28;20049;-85
2023/07/25 09:21:03;;;;;;;5.60;1.15;;;18.50;99.90;;;;;;5039348;28;20097;-85
2023/07/25 09:23:29;;;;;;;4.55;1.20;;;18.40;99.90;;;;;;5063170;28;20097;-86
2023/07/25 09:26:09;;;;;;;4.22;0.95;;;18.40;99.90;;;;;;5058245;28;20071;-85
2023/07/25 09:28:51;;;;;;;6.22;1.10;;;18.40;99.90;;;;;;5044489;28;20033;-89
2023/07/25 09:31:19;;;;;;;4.72;1.00;;;18.30;99.90;;;;;;5054570;28;20078;-84
2023/07/25 09:33:54;;;;;;;5.43;1.25;;;18.40;99.90;;;;;;5013619;28;20385;-87
2023/07/25 09:36:20;;;;;;;4.47;1.17;;;18.50;99.90;;;;;;5041361;28;20036;-85
2023/07/25 09:38:55;;;;;;;5.95;0.95;;;18.60;99.90;;;;;;5042948;28;20033;-85
2023/07/25 09:41:23;;;;;;;4.97;1.23;;;18.80;99.90;;;;;;5064322;28;20480;-85
2023/07/25 09:43:50;;;;;;;4.32;1.08;;;18.90;99.90;;;;;;5042864;28;20064;-85
2023/07/25 09:46:16;;;;;;;7.00;1.13;;;18.90;99.90;;;;;;5043186;28;20021;-85
2023/07/25 09:48:50;;;;;;;6.53;1.23;;;18.90;99.90;;;;;;5060889;28;20032;-86
2023/07/25 09:51:16;;;;;;;4.57;1.02;;;18.90;99.90;;;;;;5043622;28;20426;-86
2023/07/25 09:53:50;;;;;;;6.07;1.30;;;18.80;99.90;;;;;;5058526;28;20035;-84
2023/07/25 09:56:18;;;;;;;8.57;1.33;;;18.80;99.90;;;;;;5026859;28;20431;-85
2023/07/25 09:58:44;;;;;;;5.60;1.30;;;18.70;99.90;;;;;;5042508;28;20435;-85
2023/07/25 10:01:10;;;;;;;4.75;1.08;;;18.60;99.90;;;;;;5042111;28;20036;-84
2023/07/25 10:03:38;;;;;;;5.47;1.20;;;18.50;99.90;;;;;;5049020;28;20029;-85
2023/07/25 10:06:14;;;;;;;3.40;1.10;;;18.40;99.90;;;;;;5053280;28;20027;-84
2023/07/25 10:08:48;;;;;;;6.45;1.30;;;18.30;99.90;;;;;;5050249;28;20098;-86
2023/07/25 10:11:16;;;;;;;8.48;1.35;;;18.30;99.90;;;;;;5045590;28;20123;-84
2023/07/25 10:13:44;;;;;;;5.95;1.17;;;18.20;99.90;;;;;;5045730;28;20055;-84
2023/07/25 10:16:14;;;;;;;6.47;1.10;;;18.30;99.90;;;;;;5025534;28;20039;-84
2023/07/25 10:18:42;;;;;;;8.93;1.50;;;18.20;99.90;;;;;;5042142;28;20029;-85
2023/07/25 10:21:11;;;;;;;4.80;1.20;;;18.20;99.90;;;;;;5042064;28;20462;-84
2023/07/25 10:23:37;;;;;;;6.90;1.52;;;18.20;99.90;;;;;;5042209;28;20028;-86
2023/07/25 10:26:11;;;;;;;5.45;1.23;;;18.20;99.90;;;;;;5025363;28;20078;-85
2023/07/25 10:28:37;;;;;;;5.88;1.25;;;18.20;99.90;;;;;;5030074;28;20035;-84
2023/07/25 10:31:07;;;;;;;4.20;1.33;;;18.20;99.90;;;;;;5040194;28;20496;-83
2023/07/25 10:33:38;;;;;;;3.58;0.82;;;18.30;99.90;;;;;;5043137;28;20036;-84
2023/07/25 10:36:05;;;;;;;4.22;0.98;;;18.30;99.90;;;;;;5075869;28;20382;-84
2023/07/25 10:38:40;;;;;;;4.90;1.38;;;18.30;99.90;;;;;;5060073;28;20036;-86
2023/07/25 10:41:11;;;;;;;7.90;0.88;;;18.50;99.90;;;;;;5056837;28;20031;-84
2023/07/25 10:43:53;;;;;;;4.68;1.20;;;18.50;99.90;;;;;;5042731;28;20500;-84
2023/07/25 10:46:26;;;;;;;4.20;0.90;;;18.60;99.90;;;;;;5084796;28;20036;-85
2023/07/25 10:48:59;;;;;;;3.47;1.00;;;18.50;99.90;;;;;;5057016;28;20107;-87
2023/07/25 10:51:51;;;;;;;7.28;1.10;;;18.50;99.90;;;;;;5055008;28;20130;-85
2023/07/25 10:54:22;;;;;;;8.25;1.35;;;18.40;99.90;;;;;;5030400;28;20457;-85
2023/07/25 10:57:09;;;;;;;8.95;1.40;;;18.40;99.90;;;;;;5047373;28;20496;-86
2023/07/25 10:59:58;;;;;;;6.63;1.23;;;18.40;99.90;;;;;;5042386;28;20032;-86
2023/07/25 11:02:28;;;;;;;4.95;1.27;;;18.30;99.90;;;;;;5054927;28;20042;-85
2023/07/25 11:05:12;;;;;;;4.63;1.23;;;18.30;99.90;;;;;;5059063;28;20043;-84
2023/07/25 11:07:40;;;;;;;7.80;1.63;;;18.40;99.90;;;;;;5060116;28;20043;-84
2023/07/25 11:10:07;;;;;;;7.53;1.10;;;18.40;99.90;;;;;;5043292;28;20051;-84
2023/07/25 11:12:33;;;;;;;6.07;1.30;;;18.50;99.90;;;;;;5061338;28;20036;-84
2023/07/25 11:15:00;;;;;;;3.50;1.02;;;18.60;99.90;;;;;;5044484;28;20434;-85
2023/07/25 11:17:30;;;;;;;6.00;1.10;;;18.60;99.90;;;;;;5061368;28;20433;-85
2023/07/25 11:20:16;;;;;;;8.82;1.30;;;18.70;99.90;;;;;;5043632;28;20336;-84
2023/07/25 11:22:43;;;;;;;4.88;1.00;;;18.70;99.90;;;;;;5041281;28;20029;-84
2023/07/25 11:25:09;;;;;;;5.57;1.33;;;18.60;99.90;;;;;;5040751;28;20043;-84
2023/07/25 11:27:46;;;;;;;5.10;1.10;;;18.60;99.90;;;;;;5057653;28;20103;-84
2023/07/25 11:30:16;;;;;;;8.43;1.17;;;18.50;99.90;;;;;;5024491;28;20074;-85
2023/07/25 11:32:49;;;;;;;3.45;1.00;;;18.40;99.90;;;;;;5052825;28;20036;-86
2023/07/25 11:35:18;;;;;;;6.93;1.30;;;18.30;99.90;;;;;;5041481;28;20036;-85
2023/07/25 11:37:50;;;;;;;5.50;1.35;;;18.10;99.90;;;;;;5077722;28;20032;-84
2023/07/25 11:40:21;;;;;;;5.00;1.30;;;18.00;99.90;;;;;;5044299;28;20097;-86
2023/07/25 11:42:51;;;;;;;5.50;1.52;;;17.90;99.90;;;;;;5044552;28;20024;-84
2023/07/25 11:45:17;;;;;;;7.63;1.63;;;17.80;99.90;;;;;;5043427;28;20067;-84
2023/07/25 11:47:47;;;;;;;4.78;1.42;;;17.90;99.90;;;;;;5060981;28;20028;-84
2023/07/25 11:50:14;;;;;;;7.78;1.55;;;17.80;99.90;;;;;;5033961;28;20041;-85
2023/07/25 11:52:43;;;;;;;8.98;1.70;;;17.80;99.90;;;;;;5040927;28;20039;-84
2023/07/25 11:55:10;;;;;;;5.65;1.25;;;17.90;99.90;;;;;;5049421;28;20419;-85
2023/07/25 11:57:37;;;;;;;4.78;1.20;;;18.00;99.90;;;;;;5052276;28;20033;-84
2023/07/25 12:00:07;;;;;;;9.25;1.33;;;18.00;99.90;;;;;;5028476;28;20393;-85
2023/07/25 12:02:37;;;;;;;7.68;1.35;;;18.00;99.90;;;;;;5069467;28;20040;-86
2023/07/25 12:05:03;;;;;;;6.85;1.60;;;18.10;99.90;;;;;;5040263;28;20035;-85
2023/07/25 12:07:49;;;;;;;5.25;1.55;;;18.10;99.90;;;;;;5008203;28;20143;-84
2023/07/25 12:10:35;;;;;;;3.65;1.23;;;18.10;99.90;;;;;;5040434;28;20032;-84
2023/07/25 12:13:08;;;;;;;6.60;1.40;;;18.10;99.90;;;;;;5028039;28;20310;-85
2023/07/25 12:15:51;;;;;;;3.88;1.10;;;18.10;99.90;;;;;;5027880;28;20033;-84
2023/07/25 12:18:30;;;;;;;5.53;1.20;;;18.10;99.90;;;;;;5063042;28;20356;-84
2023/07/25 12:20:58;;;;;;;9.35;1.60;;;18.10;99.90;;;;;;5047176;28;20036;-84
2023/07/25 12:23:38;;;;;;;8.80;1.60;;;18.00;99.90;;;;;;5063903;28;20034;-85
2023/07/25 12:26:05;;;;;;;7.63;1.50;;;17.90;99.90;;;;;;5060785;28;20043;-86
2023/07/25 12:28:42;;;;;;;7.35;1.60;;;17.90;99.90;;;;;;5051633;28;20032;-85
2023/07/25 12:31:09;;;;;;;5.13;1.50;;;17.90;99.90;;;;;;5062786;28;20074;-85
2023/07/25 12:33:35;;;;;;;4.90;1.27;;;17.90;99.90;;;;;;5063299;28;20034;-84
2023/07/25 12:36:02;;;;;;;3.20;1.00;;;17.90;99.90;;;;;;5037391;28;20037;-85
2023/07/25 12:38:28;;;;;;;5.10;1.50;;;18.00;99.90;;;;;;5044080;28;20032;-86
2023/07/25 12:40:55;;;;;;;4.07;1.23;;;18.00;99.90;;;;;;5027262;28;20367;-84
2023/07/25 12:43:21;;;;;;;3.47;1.00;;;18.00;99.90;;;;;;5043706;28;20036;-85
2023/07/25 12:45:47;;;;;;;4.35;1.08;;;18.00;99.90;;;;;;5046263;28;20188;-86
2023/07/25 12:48:13;;;;;;;5.50;1.23;;;18.10;99.90;;;;;;5047102;28;20458;-85